createdAt,value
2022-12-20T00:02:21.061Z,2.16
2022-12-20T00:04:47.756Z,2.19
2022-12-20T00:07:14.923Z,2.18
2022-12-20T00:09:41.807Z,2.17
2022-12-20T00:12:08.207Z,2.17
2022-12-20T00:14:34.727Z,2.19
2022-12-20T00:17:01.160Z,2.18
2022-12-20T00:19:27.577Z,2.21
2022-12-20T00:21:54.349Z,2.21
2022-12-20T00:24:26.493Z,2.22
2022-12-20T00:26:53.310Z,2.22
2022-12-20T00:29:19.870Z,2.26
2022-12-20T00:31:46.520Z,2.30
2022-12-20T00:34:13.189Z,2.32
2022-12-20T00:36:40.145Z,2.33
2022-12-20T00:39:06.679Z,2.33
2022-12-20T00:41:34.661Z,2.33
2022-12-20T00:44:02.498Z,2.34
2022-12-20T00:46:29.753Z,2.35
2022-12-20T00:48:56.528Z,2.36
2022-12-20T00:51:29.220Z,2.37
2022-12-20T00:53:55.714Z,2.38
2022-12-20T00:56:22.601Z,2.35
2022-12-20T00:58:49.696Z,2.34
2022-12-20T01:01:25.665Z,2.34
2022-12-20T01:03:53.462Z,2.34
2022-12-20T01:06:21.592Z,2.33
2022-12-20T01:08:48.314Z,2.33
2022-12-20T01:11:18.594Z,2.32
2022-12-20T01:13:48.522Z,2.34
2022-12-20T01:16:29.880Z,2.35
2022-12-20T01:18:56.882Z,2.35
2022-12-20T01:21:25.156Z,2.34
2022-12-20T01:23:52.312Z,2.36
2022-12-20T01:26:21.813Z,2.38
2022-12-20T01:28:51.938Z,2.40
2022-12-20T01:31:20.455Z,2.42
2022-12-20T01:33:48.063Z,2.42
2022-12-20T01:36:21.245Z,2.41
2022-12-20T01:38:48.068Z,2.40
2022-12-20T01:41:17.941Z,2.37
2022-12-20T01:44:00.728Z,2.36
2022-12-20T01:46:30.582Z,2.35
2022-12-20T01:49:08.254Z,2.35
2022-12-20T01:51:39.780Z,2.36
2022-12-20T01:54:25.087Z,2.34
2022-12-20T01:56:58.577Z,2.30
2022-12-20T01:59:27.233Z,2.28
2022-12-20T02:01:58.089Z,2.27
2022-12-20T02:04:25.347Z,2.27
2022-12-20T02:06:51.804Z,2.25
2022-12-20T02:09:18.544Z,2.21
2022-12-20T02:12:11.854Z,2.17
2022-12-20T02:15:00.218Z,2.09
2022-12-20T02:18:07.041Z,1.99
2022-12-20T02:21:04.519Z,1.94
2022-12-20T02:24:08.634Z,1.94
2022-12-20T02:26:53.390Z,1.92
2022-12-20T02:29:37.580Z,1.87
2022-12-20T02:32:24.867Z,1.82
2022-12-20T02:34:52.036Z,1.76
2022-12-20T02:37:18.577Z,1.71
2022-12-20T02:39:46.464Z,1.65
2022-12-20T02:42:15.475Z,1.57
2022-12-20T02:44:52.050Z,1.47
2022-12-20T02:47:24.883Z,1.43
2022-12-20T02:49:54.016Z,1.42
2022-12-20T02:52:23.578Z,1.40
2022-12-20T02:54:50.166Z,1.40
2022-12-20T02:57:26.588Z,1.41
2022-12-20T03:00:02.577Z,1.42
2022-12-20T03:02:30.485Z,1.43
2022-12-20T03:04:58.652Z,1.45
2022-12-20T03:07:25.155Z,1.49
2022-12-20T03:09:51.571Z,1.52
2022-12-20T03:12:17.973Z,1.55
2022-12-20T03:14:44.502Z,1.58
2022-12-20T03:17:11.141Z,1.61
2022-12-20T03:19:37.780Z,1.63
2022-12-20T03:22:04.553Z,1.64
2022-12-20T03:24:31.051Z,1.65
2022-12-20T03:26:57.583Z,1.67
2022-12-20T03:29:24.145Z,1.67
2022-12-20T03:31:50.543Z,1.65
2022-12-20T03:34:17.079Z,1.62
2022-12-20T03:36:43.742Z,1.59
2022-12-20T03:39:10.192Z,1.56
2022-12-20T03:41:37.439Z,1.54
2022-12-20T03:44:04.242Z,1.52
2022-12-20T03:46:30.762Z,1.50
2022-12-20T03:48:57.254Z,1.50
2022-12-20T03:51:23.828Z,1.51
2022-12-20T03:53:50.365Z,1.54
2022-12-20T03:56:16.911Z,1.54
2022-12-20T03:58:43.447Z,1.57
2022-12-20T04:01:21.566Z,1.59
2022-12-20T04:03:48.597Z,1.58
2022-12-20T04:06:15.813Z,1.60
2022-12-20T04:08:42.267Z,1.63
2022-12-20T04:11:09.161Z,1.66
2022-12-20T04:13:35.691Z,1.67
2022-12-20T04:16:02.197Z,1.68
2022-12-20T04:18:28.826Z,1.69
2022-12-20T04:20:55.436Z,1.68
2022-12-20T04:23:22.191Z,1.67
2022-12-20T04:25:48.944Z,1.65
2022-12-20T04:28:15.377Z,1.62
2022-12-20T04:30:41.811Z,1.58
2022-12-20T04:33:08.463Z,1.55
2022-12-20T04:35:34.921Z,1.52
2022-12-20T04:38:01.395Z,1.51
2022-12-20T04:40:27.973Z,1.48
2022-12-20T04:42:54.619Z,1.43
2022-12-20T04:45:21.066Z,1.40
2022-12-20T04:47:47.508Z,1.38
2022-12-20T04:50:14.032Z,1.37
2022-12-20T04:52:47.118Z,1.37
2022-12-20T04:55:14.614Z,1.40
2022-12-20T04:57:41.142Z,1.41
2022-12-20T05:00:08.925Z,1.41
2022-12-20T05:02:35.527Z,1.40
2022-12-20T05:05:02.724Z,1.40
2022-12-20T05:07:29.190Z,1.42
2022-12-20T05:09:55.645Z,1.44
2022-12-20T05:12:22.082Z,1.48
2022-12-20T05:14:48.556Z,1.52
2022-12-20T05:17:15.194Z,1.52
2022-12-20T05:19:41.587Z,1.53
2022-12-20T05:22:10.724Z,1.53
2022-12-20T05:24:37.203Z,1.51
2022-12-20T05:27:03.980Z,1.48
2022-12-20T05:29:30.610Z,1.47
2022-12-20T05:31:57.235Z,1.46
2022-12-20T05:34:23.774Z,1.45
2022-12-20T05:36:50.495Z,1.42
2022-12-20T05:39:17.133Z,1.39
2022-12-20T05:41:43.576Z,1.35
2022-12-20T05:44:10.104Z,1.33
2022-12-20T05:46:36.719Z,1.31
2022-12-20T05:49:03.258Z,1.30
2022-12-20T05:51:29.707Z,1.27
2022-12-20T05:53:56.179Z,1.26
2022-12-20T05:56:22.732Z,1.26
2022-12-20T05:58:49.268Z,1.29
2022-12-20T06:01:15.731Z,1.35
2022-12-20T06:03:42.367Z,1.38
2022-12-20T06:06:13.837Z,1.37
2022-12-20T06:08:40.830Z,1.36
2022-12-20T06:11:07.295Z,1.36
2022-12-20T06:13:33.938Z,1.33
2022-12-20T06:16:00.826Z,1.27
2022-12-20T06:18:27.510Z,1.19
2022-12-20T06:20:54.458Z,1.11
2022-12-20T06:23:21.317Z,1.06
2022-12-20T06:25:48.366Z,1.02
2022-12-20T06:28:14.762Z,0.99
2022-12-20T06:30:41.228Z,1.03
2022-12-20T06:33:07.995Z,1.07
2022-12-20T06:35:34.403Z,1.09
2022-12-20T06:38:00.970Z,1.11
2022-12-20T06:40:27.506Z,1.13
2022-12-20T06:42:53.957Z,1.16
2022-12-20T06:45:20.489Z,1.18
2022-12-20T06:47:47.006Z,1.20
2022-12-20T06:50:13.418Z,1.22
2022-12-20T06:52:39.858Z,1.26
2022-12-20T06:55:06.953Z,1.30
2022-12-20T06:57:33.387Z,1.34
2022-12-20T06:59:59.926Z,1.38
2022-12-20T07:02:27.876Z,1.44
2022-12-20T07:04:55.122Z,1.51
2022-12-20T07:07:21.692Z,1.58
2022-12-20T07:09:48.143Z,1.67
2022-12-20T07:12:14.721Z,1.76
2022-12-20T07:14:41.208Z,1.84
2022-12-20T07:17:08.200Z,1.93
2022-12-20T07:19:35.819Z,2.04
2022-12-20T07:22:04.210Z,2.14
2022-12-20T07:24:30.627Z,2.24
2022-12-20T07:26:57.182Z,2.31
2022-12-20T07:29:24.132Z,2.35
2022-12-20T07:31:52.768Z,2.34
2022-12-20T07:34:19.579Z,2.32
2022-12-20T07:36:46.131Z,2.31
2022-12-20T07:39:12.745Z,2.30
2022-12-20T07:41:40.220Z,2.33
2022-12-20T07:44:06.786Z,2.38
2022-12-20T07:46:33.736Z,2.45
2022-12-20T07:49:00.453Z,2.57
2022-12-20T07:51:31.112Z,2.69
2022-12-20T07:54:11.872Z,2.82
2022-12-20T07:56:42.961Z,2.98
2022-12-20T07:59:14.032Z,3.12
2022-12-20T08:01:43.972Z,3.20
2022-12-20T08:04:21.323Z,3.25
2022-12-20T08:06:49.807Z,3.32
2022-12-20T08:09:16.899Z,3.39
2022-12-20T08:11:47.228Z,3.42
2022-12-20T08:14:14.522Z,3.40
2022-12-20T08:16:41.070Z,3.35
2022-12-20T08:19:08.494Z,3.31
2022-12-20T08:21:35.236Z,3.30
2022-12-20T08:24:03.236Z,3.30
2022-12-20T08:26:29.964Z,3.34
2022-12-20T08:28:56.707Z,3.39
2022-12-20T08:31:23.500Z,3.44
2022-12-20T08:33:55.015Z,3.50
2022-12-20T08:36:21.651Z,3.58
2022-12-20T08:38:48.188Z,3.69
2022-12-20T08:41:15.978Z,3.80
2022-12-20T08:43:43.075Z,3.89
2022-12-20T08:46:11.046Z,3.97
2022-12-20T08:48:37.559Z,3.97
2022-12-20T08:51:07.510Z,3.92
2022-12-20T08:53:35.839Z,3.91
2022-12-20T08:56:17.332Z,3.92
2022-12-20T08:58:44.342Z,3.94
2022-12-20T09:01:14.047Z,3.90
2022-12-20T09:03:41.542Z,3.89
2022-12-20T09:06:10.716Z,4.00
2022-12-20T09:08:39.024Z,4.15
2022-12-20T09:11:09.775Z,4.28
2022-12-20T09:13:41.660Z,4.21
2022-12-20T09:16:11.383Z,4.11
2022-12-20T09:18:37.876Z,4.05
2022-12-20T09:21:06.480Z,4.01
2022-12-20T09:23:34.755Z,3.98
2022-12-20T09:26:03.509Z,4.03
2022-12-20T09:28:30.882Z,4.07
2022-12-20T09:31:02.225Z,4.19
2022-12-20T09:33:29.199Z,4.30
2022-12-20T09:35:55.641Z,4.26
2022-12-20T09:38:22.163Z,4.25
2022-12-20T09:40:52.209Z,4.34
2022-12-20T09:43:20.381Z,4.46
2022-12-20T09:45:48.773Z,4.59
2022-12-20T09:48:20.101Z,4.73
2022-12-20T09:51:18.576Z,4.92
2022-12-20T09:53:54.056Z,5.15
2022-12-20T09:56:26.519Z,5.21
2022-12-20T09:59:06.328Z,5.20
2022-12-20T10:01:39.497Z,5.16
2022-12-20T10:04:30.729Z,5.12
2022-12-20T10:07:33.467Z,5.12
2022-12-20T10:10:28.481Z,5.17
2022-12-20T10:13:00.941Z,5.18
2022-12-20T10:15:37.452Z,5.18
2022-12-20T10:18:06.756Z,5.15
2022-12-20T10:20:54.126Z,5.14
2022-12-20T10:23:44.791Z,5.06
2022-12-20T10:26:12.984Z,5.00
2022-12-20T10:28:40.239Z,4.97
2022-12-20T10:31:12.755Z,4.91
2022-12-20T10:33:40.569Z,4.86
2022-12-20T10:36:27.549Z,4.86
2022-12-20T10:38:57.719Z,4.85
2022-12-20T10:41:30.324Z,4.85
2022-12-20T10:44:06.271Z,4.85
2022-12-20T10:46:42.518Z,4.88
2022-12-20T10:49:41.739Z,4.97
2022-12-20T10:52:08.224Z,4.94
2022-12-20T10:54:37.800Z,4.91
2022-12-20T10:57:28.399Z,4.90
2022-12-20T11:00:01.450Z,4.88
2022-12-20T11:02:41.555Z,4.87
2022-12-20T11:05:10.781Z,4.91
2022-12-20T11:08:24.581Z,4.92
2022-12-20T11:10:38.124Z,4.90
2022-12-20T11:13:04.579Z,4.84
2022-12-20T11:15:34.791Z,4.75
2022-12-20T11:18:13.847Z,4.68
2022-12-20T11:20:58.940Z,4.62
2022-12-20T11:24:06.416Z,4.58
2022-12-20T11:27:11.962Z,4.60
2022-12-20T11:29:50.745Z,4.57
2022-12-20T11:32:48.883Z,4.55
2022-12-20T11:35:39.794Z,4.54
2022-12-20T11:38:29.085Z,4.56
2022-12-20T11:41:01.032Z,4.59
2022-12-20T11:44:15.646Z,4.61
2022-12-20T11:46:46.799Z,4.70
2022-12-20T11:49:50.812Z,4.80
2022-12-20T11:52:39.217Z,4.86
2022-12-20T11:55:18.663Z,4.95
2022-12-20T11:58:21.358Z,5.10
2022-12-20T12:00:56.086Z,5.17
2022-12-20T12:03:34.785Z,5.18
2022-12-20T12:06:12.417Z,5.18
2022-12-20T12:08:49.048Z,5.16
2022-12-20T12:12:04.040Z,5.16
2022-12-20T12:14:18.066Z,5.17
2022-12-20T12:16:51.432Z,5.16
2022-12-20T12:19:18.057Z,5.14
2022-12-20T12:21:51.340Z,5.13
2022-12-20T12:24:29.078Z,5.18
2022-12-20T12:26:56.083Z,5.19
2022-12-20T12:29:22.593Z,5.21
2022-12-20T12:31:55.248Z,5.19
2022-12-20T12:34:45.829Z,5.14
2022-12-20T12:37:31.158Z,5.07
2022-12-20T12:40:06.871Z,5.02
2022-12-20T12:42:53.816Z,4.96
2022-12-20T12:45:28.279Z,4.81
2022-12-20T12:48:01.418Z,4.70
2022-12-20T12:50:32.435Z,4.61
2022-12-20T12:53:15.993Z,4.53
2022-12-20T12:55:45.193Z,4.44
2022-12-20T12:58:32.256Z,4.37
2022-12-20T13:01:01.771Z,4.29
2022-12-20T13:03:45.368Z,4.20
2022-12-20T13:06:24.234Z,4.13
2022-12-20T13:08:56.774Z,4.07
2022-12-20T13:11:36.237Z,4.01
2022-12-20T13:14:31.941Z,3.91
2022-12-20T13:17:13.723Z,3.80
2022-12-20T13:19:53.628Z,3.70
2022-12-20T13:22:22.613Z,3.61
2022-12-20T13:24:54.041Z,3.54
2022-12-20T13:27:36.671Z,3.47
2022-12-20T13:30:08.943Z,3.39
2022-12-20T13:32:47.740Z,3.33
2022-12-20T13:35:26.426Z,3.28
2022-12-20T13:37:55.059Z,3.23
2022-12-20T13:40:45.209Z,3.19
2022-12-20T13:43:20.691Z,3.17
2022-12-20T13:46:13.022Z,3.15
2022-12-20T13:48:50.096Z,3.14
2022-12-20T13:51:27.659Z,3.14
2022-12-20T13:54:08.535Z,3.13
2022-12-20T13:56:47.358Z,3.11
2022-12-20T13:59:27.547Z,3.06
2022-12-20T14:02:00.235Z,3.03
2022-12-20T14:04:45.073Z,3.02
2022-12-20T14:07:19.326Z,3.01
2022-12-20T14:09:54.630Z,2.99
2022-12-20T14:12:26.452Z,2.97
2022-12-20T14:14:57.034Z,2.93
2022-12-20T14:17:29.888Z,2.88
2022-12-20T14:20:13.044Z,2.83
2022-12-20T14:23:00.738Z,2.77
2022-12-20T14:25:56.694Z,2.69
2022-12-20T14:28:44.153Z,2.63
2022-12-20T14:31:32.716Z,2.56
2022-12-20T14:34:11.203Z,2.49
2022-12-20T14:36:39.635Z,2.43
2022-12-20T14:39:28.525Z,2.38
2022-12-20T14:42:07.930Z,2.33
2022-12-20T14:44:34.470Z,2.29
2022-12-20T14:47:12.950Z,2.26
2022-12-20T14:49:39.866Z,2.19
2022-12-20T14:52:13.153Z,2.14
2022-12-20T14:55:09.045Z,2.08
2022-12-20T14:57:36.659Z,2.04
2022-12-20T15:00:20.354Z,2.01
2022-12-20T15:02:56.970Z,1.99
2022-12-20T15:05:41.054Z,1.97
2022-12-20T15:08:16.858Z,1.97
2022-12-20T15:10:56.410Z,1.97
2022-12-20T15:13:32.513Z,1.98
2022-12-20T15:16:04.698Z,1.98
2022-12-20T15:18:31.692Z,1.98
2022-12-20T15:21:13.822Z,1.97
2022-12-20T15:23:49.253Z,1.95
2022-12-20T15:26:17.664Z,1.95
2022-12-20T15:28:44.656Z,1.95
2022-12-20T15:31:13.022Z,1.96
2022-12-20T15:33:42.024Z,1.95
2022-12-20T15:36:17.522Z,1.96
2022-12-20T15:41:33.093Z,1.99
2022-12-20T15:44:05.817Z,2.00
2022-12-20T15:46:33.016Z,2.00
2022-12-20T15:48:59.921Z,2.00
2022-12-20T15:51:35.260Z,1.99
2022-12-20T15:54:04.362Z,2.00
2022-12-20T15:56:30.907Z,2.00
2022-12-20T15:58:57.403Z,1.98
2022-12-20T16:01:40.771Z,1.96
2022-12-20T16:04:13.716Z,1.96
2022-12-20T16:06:40.353Z,1.94
2022-12-20T16:09:06.827Z,1.92
2022-12-20T16:11:33.500Z,1.92
2022-12-20T16:14:00.361Z,1.92
2022-12-20T16:16:36.685Z,1.92
2022-12-20T16:19:03.615Z,1.93
2022-12-20T16:21:33.555Z,1.92
2022-12-20T16:24:00.428Z,1.89
2022-12-20T16:26:27.284Z,1.87
2022-12-20T16:28:55.764Z,1.82
2022-12-20T16:31:28.967Z,1.77
2022-12-20T16:33:55.800Z,1.74
2022-12-20T16:36:23.410Z,1.67
2022-12-20T16:38:50.957Z,1.61
2022-12-20T16:41:21.677Z,1.60
2022-12-20T16:43:48.829Z,1.58
2022-12-20T16:46:20.744Z,1.53
2022-12-20T16:48:47.939Z,1.51
2022-12-20T16:51:25.961Z,1.49
2022-12-20T16:54:17.974Z,1.46
2022-12-20T16:56:41.366Z,1.42
2022-12-20T16:59:19.154Z,1.38
2022-12-20T17:01:48.692Z,1.37
2022-12-20T17:04:17.667Z,1.34
2022-12-20T17:06:46.047Z,1.32
2022-12-20T17:09:13.200Z,1.29
2022-12-20T17:11:39.750Z,1.26
2022-12-20T17:14:12.125Z,1.23
2022-12-20T17:16:40.071Z,1.22
2022-12-20T17:19:06.644Z,1.20
2022-12-20T17:24:28.177Z,1.14
2022-12-20T17:26:54.868Z,1.11
2022-12-20T17:29:21.884Z,1.08
2022-12-20T17:31:48.815Z,1.03
2022-12-20T17:34:22.845Z,1.02
2022-12-20T17:36:51.336Z,0.99
2022-12-20T17:39:18.471Z,0.99
2022-12-20T17:41:46.288Z,0.98
2022-12-20T17:44:21.471Z,0.98
2022-12-20T17:46:48.278Z,0.98
2022-12-20T17:49:15.606Z,0.98
2022-12-20T17:51:42.613Z,0.98
2022-12-20T17:54:18.546Z,0.96
2022-12-20T17:56:45.983Z,0.90
2022-12-20T17:59:13.719Z,0.84
2022-12-20T18:01:41.873Z,0.78
2022-12-20T18:04:11.369Z,0.75
2022-12-20T18:06:39.843Z,0.73
2022-12-20T18:09:11.702Z,0.71
2022-12-20T18:11:38.309Z,0.69
2022-12-20T18:14:05.055Z,0.66
2022-12-20T18:16:33.203Z,0.64
2022-12-20T18:19:02.609Z,0.60
2022-12-20T18:21:29.176Z,0.55
2022-12-20T18:23:55.786Z,0.50
2022-12-20T18:26:25.538Z,0.43
2022-12-20T18:28:58.005Z,0.36
2022-12-20T18:31:26.968Z,0.30
2022-12-20T18:33:57.968Z,0.27
2022-12-20T18:36:26.330Z,0.26
2022-12-20T18:38:53.586Z,0.26
2022-12-20T18:41:23.075Z,0.26
2022-12-20T18:43:50.909Z,0.27
2022-12-20T18:46:20.763Z,0.28
2022-12-20T18:48:49.686Z,0.30
2022-12-20T18:51:19.317Z,0.32
2022-12-20T18:53:47.577Z,0.34
2022-12-20T18:56:20.459Z,0.37
2022-12-20T18:58:48.174Z,0.40
2022-12-20T19:01:22.069Z,0.41
2022-12-20T19:03:51.116Z,0.43
2022-12-20T19:06:18.927Z,0.46
2022-12-20T19:08:45.457Z,0.46
2022-12-20T19:11:15.457Z,0.45
2022-12-20T19:13:43.129Z,0.43
2022-12-20T19:16:18.293Z,0.40
2022-12-20T19:18:45.647Z,0.39
2022-12-20T19:21:17.098Z,0.40
2022-12-20T19:23:45.735Z,0.42
2022-12-20T19:26:13.827Z,0.42
2022-12-20T19:28:41.716Z,0.42
2022-12-20T19:31:19.261Z,0.40
2022-12-20T19:33:48.130Z,0.39
2022-12-20T19:36:23.601Z,0.39
2022-12-20T19:38:53.303Z,0.40
2022-12-20T19:41:19.954Z,0.40
2022-12-20T19:43:47.778Z,0.39
2022-12-20T19:46:15.358Z,0.38
2022-12-20T19:48:42.391Z,0.36
2022-12-20T19:51:11.997Z,0.36
2022-12-20T19:53:43.306Z,0.35
2022-12-20T19:56:11.693Z,0.32
2022-12-20T19:58:39.021Z,0.31
2022-12-20T20:01:07.919Z,0.30
2022-12-20T20:03:36.555Z,0.31
2022-12-20T20:06:04.821Z,0.34
2022-12-20T20:08:32.739Z,0.35
2022-12-20T20:11:05.340Z,0.37
2022-12-20T20:13:35.657Z,0.39
2022-12-20T20:16:03.499Z,0.40
2022-12-20T20:18:32.972Z,0.41
2022-12-20T20:20:59.427Z,0.39
2022-12-20T20:23:27.468Z,0.38
2022-12-20T20:25:56.222Z,0.37
2022-12-20T20:28:31.291Z,0.36
2022-12-20T20:30:58.954Z,0.36
2022-12-20T20:33:25.646Z,0.36
2022-12-20T20:36:01.245Z,0.35
2022-12-20T20:38:29.562Z,0.34
2022-12-20T20:40:56.671Z,0.33
2022-12-20T20:43:24.132Z,0.33
2022-12-20T20:45:51.403Z,0.32
2022-12-20T20:48:18.449Z,0.32
2022-12-20T20:50:45.384Z,0.33
2022-12-20T20:53:13.366Z,0.34
2022-12-20T20:55:40.034Z,0.33
2022-12-20T20:58:06.553Z,0.31
2022-12-20T21:00:33.863Z,0.28
2022-12-20T21:03:00.601Z,0.27
2022-12-20T21:08:14.323Z,0.23
2022-12-20T21:10:41.580Z,0.20
2022-12-20T21:13:08.127Z,0.19
2022-12-20T21:15:36.531Z,0.21
2022-12-20T21:18:03.042Z,0.22
2022-12-20T21:20:29.450Z,0.23
2022-12-20T21:22:55.898Z,0.24
2022-12-20T21:25:22.291Z,0.23
2022-12-20T21:27:48.787Z,0.22
2022-12-20T21:30:15.545Z,0.22
2022-12-20T21:32:41.941Z,0.22
2022-12-20T21:35:09.011Z,0.22
2022-12-20T21:37:35.551Z,0.20
2022-12-20T21:40:01.976Z,0.17
2022-12-20T21:42:29.251Z,0.15
2022-12-20T21:44:55.676Z,0.15
2022-12-20T21:47:24.162Z,0.16
2022-12-20T21:49:51.433Z,0.16
2022-12-20T21:52:17.940Z,0.15
2022-12-20T21:54:44.512Z,0.14
2022-12-20T21:57:10.990Z,0.13
2022-12-20T21:59:38.103Z,0.10
2022-12-20T22:02:05.332Z,0.07
2022-12-20T22:04:33.017Z,0.04
2022-12-20T22:06:59.452Z,-0.00
2022-12-20T22:09:26.039Z,-0.06
2022-12-20T22:11:52.684Z,-0.12
2022-12-20T22:14:19.293Z,-0.18
2022-12-20T22:16:46.048Z,-0.26
2022-12-20T22:19:14.267Z,-0.34
2022-12-20T22:21:41.193Z,-0.39
2022-12-20T22:24:09.027Z,-0.45
2022-12-20T22:26:35.571Z,-0.53
2022-12-20T22:29:05.070Z,-0.60
2022-12-20T22:31:32.452Z,-0.65
2022-12-20T22:33:59.895Z,-0.72
2022-12-20T22:36:26.653Z,-0.79
2022-12-20T22:38:57.382Z,-0.84
2022-12-20T22:41:29.804Z,-0.89
2022-12-20T22:43:59.069Z,-0.94
2022-12-20T22:46:28.663Z,-1.02
2022-12-20T22:48:55.524Z,-1.12
2022-12-20T22:51:23.585Z,-1.20
2022-12-20T22:53:50.122Z,-1.25
2022-12-20T22:56:18.511Z,-1.31
2022-12-20T22:58:46.172Z,-1.37
2022-12-20T23:01:14.623Z,-1.44
2022-12-20T23:03:41.871Z,-1.50
2022-12-20T23:06:12.677Z,-1.57
2022-12-20T23:08:40.143Z,-1.66
2022-12-20T23:11:15.164Z,-1.70
2022-12-20T23:13:42.227Z,-1.72
2022-12-20T23:16:08.866Z,-1.74
2022-12-20T23:18:35.475Z,-1.76
2022-12-20T23:21:02.001Z,-1.79
2022-12-20T23:23:28.433Z,-1.83
2022-12-20T23:25:54.959Z,-1.86
2022-12-20T23:28:21.429Z,-1.89
2022-12-20T23:30:47.957Z,-1.93
2022-12-20T23:33:14.506Z,-1.98
2022-12-20T23:35:40.938Z,-2.02
2022-12-20T23:38:07.339Z,-2.05
2022-12-20T23:40:33.913Z,-2.05
2022-12-20T23:43:00.447Z,-2.04
2022-12-20T23:45:26.989Z,-2.05
2022-12-20T23:47:53.526Z,-2.08
2022-12-20T23:50:19.949Z,-2.10
2022-12-20T23:52:46.388Z,-2.13
2022-12-20T23:55:13.700Z,-2.17
2022-12-20T23:57:40.091Z,-2.20
